sensor_id;sensor_type;location;lat;lon;timestamp;temperature;humidity
26342;DHT22;14054;50.108;8.640;2023-04-24T00:02:00;12.40;99.90
26342;DHT22;14054;50.108;8.640;2023-04-24T00:04:26;12.40;99.90
26342;DHT22;14054;50.108;8.640;2023-04-24T00:06:51;12.40;99.90
26342;DHT22;14054;50.108;8.640;2023-04-24T00:09:22;12.30;99.90
26342;DHT22;14054;50.108;8.640;2023-04-24T00:11:47;12.30;99.90
26342;DHT22;14054;50.108;8.640;2023-04-24T00:14:13;12.50;99.90
26342;DHT22;14054;50.108;8.640;2023-04-24T00:16:38;12.90;99.90
26342;DHT22;14054;50.108;8.640;2023-04-24T00:19:04;12.50;99.90
26342;DHT22;14054;50.108;8.640;2023-04-24T00:21:31;12.20;99.90
26342;DHT22;14054;50.108;8.640;2023-04-24T00:23:57;12.10;99.90
26342;DHT22;14054;50.108;8.640;2023-04-24T00:26:23;12.10;99.90
26342;DHT22;14054;50.108;8.640;2023-04-24T00:28:48;12.10;99.90
26342;DHT22;14054;50.108;8.640;2023-04-24T00:31:14;12.10;99.90
26342;DHT22;14054;50.108;8.640;2023-04-24T00:33:39;12.10;99.90
26342;DHT22;14054;50.108;8.640;2023-04-24T00:36:05;12.00;99.90
26342;DHT22;14054;50.108;8.640;2023-04-24T00:38:31;12.00;99.90
26342;DHT22;14054;50.108;8.640;2023-04-24T00:40:56;12.00;99.90
26342;DHT22;14054;50.108;8.640;2023-04-24T00:43:22;12.20;99.90
26342;DHT22;14054;50.108;8.640;2023-04-24T00:45:47;12.00;99.90
26342;DHT22;14054;50.108;8.640;2023-04-24T00:48:13;12.00;99.90
26342;DHT22;14054;50.108;8.640;2023-04-24T00:50:38;12.10;99.90
26342;DHT22;14054;50.108;8.640;2023-04-24T00:53:04;11.90;99.90
26342;DHT22;14054;50.108;8.640;2023-04-24T00:55:29;12.00;99.90
26342;DHT22;14054;50.108;8.640;2023-04-24T00:57:55;12.10;99.90
26342;DHT22;14054;50.108;8.640;2023-04-24T01:00:21;11.90;99.90
26342;DHT22;14054;50.108;8.640;2023-04-24T01:02:46;11.90;99.90
26342;DHT22;14054;50.108;8.640;2023-04-24T01:05:12;12.20;99.90
26342;DHT22;14054;50.108;8.640;2023-04-24T01:07:39;12.20;99.90
26342;DHT22;14054;50.108;8.640;2023-04-24T01:10:05;11.90;99.90
26342;DHT22;14054;50.108;8.640;2023-04-24T01:12:31;11.90;99.90
26342;DHT22;14054;50.108;8.640;2023-04-24T01:14:57;11.80;99.90
26342;DHT22;14054;50.108;8.640;2023-04-24T01:17:22;11.80;99.90
26342;DHT22;14054;50.108;8.640;2023-04-24T01:19:48;11.80;99.90
26342;DHT22;14054;50.108;8.640;2023-04-24T01:22:14;11.80;99.90
26342;DHT22;14054;50.108;8.640;2023-04-24T01:24:40;11.80;99.90
26342;DHT22;14054;50.108;8.640;2023-04-24T01:27:06;11.80;99.90
26342;DHT22;14054;50.108;8.640;2023-04-24T01:29:32;11.80;99.90
26342;DHT22;14054;50.108;8.640;2023-04-24T01:31:57;11.70;99.90
26342;DHT22;14054;50.108;8.640;2023-04-24T01:34:23;11.60;99.90
26342;DHT22;14054;50.108;8.640;2023-04-24T01:36:49;11.70;99.90
26342;DHT22;14054;50.108;8.640;2023-04-24T01:39:15;11.60;99.90
26342;DHT22;14054;50.108;8.640;2023-04-24T01:41:42;11.60;99.90
26342;DHT22;14054;50.108;8.640;2023-04-24T01:44:07;11.50;99.90
26342;DHT22;14054;50.108;8.640;2023-04-24T01:46:32;11.50;99.90
26342;DHT22;14054;50.108;8.640;2023-04-24T01:48:59;11.80;99.90
26342;DHT22;14054;50.108;8.640;2023-04-24T01:51:25;11.60;99.90
26342;DHT22;14054;50.108;8.640;2023-04-24T01:53:50;11.70;99.90
26342;DHT22;14054;50.108;8.640;2023-04-24T01:56:16;11.70;99.90
26342;DHT22;14054;50.108;8.640;2023-04-24T01:58:41;12.20;99.90
26342;DHT22;14054;50.108;8.640;2023-04-24T02:01:08;11.70;99.90
26342;DHT22;14054;50.108;8.640;2023-04-24T02:03:33;11.70;99.90
26342;DHT22;14054;50.108;8.640;2023-04-24T02:05:59;11.60;99.90
26342;DHT22;14054;50.108;8.640;2023-04-24T02:08:24;11.60;99.90
26342;DHT22;14054;50.108;8.640;2023-04-24T02:10:50;11.60;99.90
26342;DHT22;14054;50.108;8.640;2023-04-24T02:13:15;11.60;99.90
26342;DHT22;14054;50.108;8.640;2023-04-24T02:15:41;11.60;99.90
26342;DHT22;14054;50.108;8.640;2023-04-24T02:18:06;11.60;99.90
26342;DHT22;14054;50.108;8.640;2023-04-24T02:20:32;12.00;99.90
26342;DHT22;14054;50.108;8.640;2023-04-24T02:22:59;11.60;99.90
26342;DHT22;14054;50.108;8.640;2023-04-24T02:25:24;11.60;99.90
26342;DHT22;14054;50.108;8.640;2023-04-24T02:27:50;11.50;99.90
26342;DHT22;14054;50.108;8.640;2023-04-24T02:30:15;11.40;99.90
26342;DHT22;14054;50.108;8.640;2023-04-24T02:32:40;11.40;99.90
26342;DHT22;14054;50.108;8.640;2023-04-24T02:35:06;11.40;99.90
26342;DHT22;14054;50.108;8.640;2023-04-24T02:37:31;11.40;99.90
26342;DHT22;14054;50.108;8.640;2023-04-24T02:39:57;11.40;99.90
26342;DHT22;14054;50.108;8.640;2023-04-24T02:42:22;11.40;99.90
26342;DHT22;14054;50.108;8.640;2023-04-24T02:44:48;11.40;99.90
26342;DHT22;14054;50.108;8.640;2023-04-24T02:47:13;11.90;99.90
26342;DHT22;14054;50.108;8.640;2023-04-24T02:49:39;11.40;99.90
26342;DHT22;14054;50.108;8.640;2023-04-24T02:52:04;11.60;99.90
26342;DHT22;14054;50.108;8.640;2023-04-24T02:54:29;11.30;99.90
26342;DHT22;14054;50.108;8.640;2023-04-24T02:56:55;11.30;99.90
26342;DHT22;14054;50.108;8.640;2023-04-24T02:59:21;11.30;99.90
26342;DHT22;14054;50.108;8.640;2023-04-24T03:01:47;11.60;99.90
26342;DHT22;14054;50.108;8.640;2023-04-24T03:04:12;11.40;99.90
26342;DHT22;14054;50.108;8.640;2023-04-24T03:06:38;11.30;99.90
26342;DHT22;14054;50.108;8.640;2023-04-24T03:09:04;11.30;99.90
26342;DHT22;14054;50.108;8.640;2023-04-24T03:11:29;11.60;99.90
26342;DHT22;14054;50.108;8.640;2023-04-24T03:13:55;11.70;99.90
26342;DHT22;14054;50.108;8.640;2023-04-24T03:16:20;11.40;99.90
26342;DHT22;14054;50.108;8.640;2023-04-24T03:18:46;11.40;99.90
26342;DHT22;14054;50.108;8.640;2023-04-24T03:21:11;11.40;99.90
26342;DHT22;14054;50.108;8.640;2023-04-24T03:23:36;11.40;99.90
26342;DHT22;14054;50.108;8.640;2023-04-24T03:26:02;11.40;99.90
26342;DHT22;14054;50.108;8.640;2023-04-24T03:28:27;11.40;99.90
26342;DHT22;14054;50.108;8.640;2023-04-24T03:30:53;11.40;99.90
26342;DHT22;14054;50.108;8.640;2023-04-24T03:33:18;11.40;99.90
26342;DHT22;14054;50.108;8.640;2023-04-24T03:35:44;11.40;99.90
26342;DHT22;14054;50.108;8.640;2023-04-24T03:38:10;11.40;99.90
26342;DHT22;14054;50.108;8.640;2023-04-24T03:40:35;11.40;99.90
26342;DHT22;14054;50.108;8.640;2023-04-24T03:43:01;11.60;99.90
26342;DHT22;14054;50.108;8.640;2023-04-24T03:45:26;11.40;99.90
26342;DHT22;14054;50.108;8.640;2023-04-24T03:47:52;11.50;99.90
26342;DHT22;14054;50.108;8.640;2023-04-24T03:50:17;11.50;99.90
26342;DHT22;14054;50.108;8.640;2023-04-24T03:52:42;11.40;99.90
26342;DHT22;14054;50.108;8.640;2023-04-24T03:55:08;11.40;99.90
26342;DHT22;14054;50.108;8.640;2023-04-24T03:57:34;11.40;99.90
26342;DHT22;14054;50.108;8.640;2023-04-24T03:59:59;11.40;99.90
26342;DHT22;14054;50.108;8.640;2023-04-24T04:02:25;11.40;99.90
26342;DHT22;14054;50.108;8.640;2023-04-24T04:04:50;11.40;99.90
26342;DHT22;14054;50.108;8.640;2023-04-24T04:07:16;11.50;99.90
26342;DHT22;14054;50.108;8.640;2023-04-24T04:09:42;11.40;99.90
26342;DHT22;14054;50.108;8.640;2023-04-24T04:12:07;11.30;99.90
26342;DHT22;14054;50.108;8.640;2023-04-24T04:14:33;11.30;99.90
26342;DHT22;14054;50.108;8.640;2023-04-24T04:16:58;11.50;99.90
26342;DHT22;14054;50.108;8.640;2023-04-24T04:19:23;11.40;99.90
26342;DHT22;14054;50.108;8.640;2023-04-24T04:21:49;11.30;99.90
26342;DHT22;14054;50.108;8.640;2023-04-24T04:24:18;11.30;99.90
26342;DHT22;14054;50.108;8.640;2023-04-24T04:26:43;11.30;99.90
26342;DHT22;14054;50.108;8.640;2023-04-24T04:29:12;11.20;99.90
26342;DHT22;14054;50.108;8.640;2023-04-24T04:31:38;11.20;99.90
26342;DHT22;14054;50.108;8.640;2023-04-24T04:34:03;11.10;99.90
26342;DHT22;14054;50.108;8.640;2023-04-24T04:36:28;11.00;99.90
26342;DHT22;14054;50.108;8.640;2023-04-24T04:38:54;11.00;99.90
26342;DHT22;14054;50.108;8.640;2023-04-24T04:41:20;11.00;99.90
26342;DHT22;14054;50.108;8.640;2023-04-24T04:43:45;10.90;99.90
26342;DHT22;14054;50.108;8.640;2023-04-24T04:46:11;10.90;99.90
26342;DHT22;14054;50.108;8.640;2023-04-24T04:48:37;10.90;99.90
26342;DHT22;14054;50.108;8.640;2023-04-24T04:51:03;10.90;99.90
26342;DHT22;14054;50.108;8.640;2023-04-24T04:53:28;10.80;99.90
26342;DHT22;14054;50.108;8.640;2023-04-24T04:55:54;10.90;99.90
26342;DHT22;14054;50.108;8.640;2023-04-24T04:58:19;10.80;99.90
26342;DHT22;14054;50.108;8.640;2023-04-24T05:00:45;10.80;99.90
26342;DHT22;14054;50.108;8.640;2023-04-24T05:03:11;10.80;99.90
26342;DHT22;14054;50.108;8.640;2023-04-24T05:05:36;10.80;99.90
26342;DHT22;14054;50.108;8.640;2023-04-24T05:08:06;10.80;99.90
26342;DHT22;14054;50.108;8.640;2023-04-24T05:10:31;10.70;99.90
26342;DHT22;14054;50.108;8.640;2023-04-24T05:12:57;10.70;99.90
26342;DHT22;14054;50.108;8.640;2023-04-24T05:15:22;10.60;99.90
26342;DHT22;14054;50.108;8.640;2023-04-24T05:17:47;10.60;99.90
26342;DHT22;14054;50.108;8.640;2023-04-24T05:20:13;10.60;99.90
26342;DHT22;14054;50.108;8.640;2023-04-24T05:22:40;10.60;99.90
26342;DHT22;14054;50.108;8.640;2023-04-24T05:25:05;10.60;99.90
26342;DHT22;14054;50.108;8.640;2023-04-24T05:27:31;10.60;99.90
26342;DHT22;14054;50.108;8.640;2023-04-24T05:29:56;10.60;99.90
26342;DHT22;14054;50.108;8.640;2023-04-24T05:32:21;10.70;99.90
26342;DHT22;14054;50.108;8.640;2023-04-24T05:34:47;10.60;99.90
26342;DHT22;14054;50.108;8.640;2023-04-24T05:37:12;10.70;99.90
26342;DHT22;14054;50.108;8.640;2023-04-24T05:39:38;10.60;99.90
26342;DHT22;14054;50.108;8.640;2023-04-24T05:42:03;11.10;99.90
26342;DHT22;14054;50.108;8.640;2023-04-24T05:44:30;10.70;99.90
26342;DHT22;14054;50.108;8.640;2023-04-24T05:46:55;10.90;99.90
26342;DHT22;14054;50.108;8.640;2023-04-24T05:49:21;10.90;99.90
26342;DHT22;14054;50.108;8.640;2023-04-24T05:51:47;11.00;99.90
26342;DHT22;14054;50.108;8.640;2023-04-24T05:54:12;11.20;99.90
26342;DHT22;14054;50.108;8.640;2023-04-24T05:56:38;11.20;99.90
26342;DHT22;14054;50.108;8.640;2023-04-24T05:59:04;11.30;99.90
26342;DHT22;14054;50.108;8.640;2023-04-24T06:01:29;11.50;99.90
26342;DHT22;14054;50.108;8.640;2023-04-24T06:03:55;11.30;99.90
26342;DHT22;14054;50.108;8.640;2023-04-24T06:06:20;11.50;99.90
26342;DHT22;14054;50.108;8.640;2023-04-24T06:08:46;11.60;99.90
26342;DHT22;14054;50.108;8.640;2023-04-24T06:11:11;11.30;99.90
26342;DHT22;14054;50.108;8.640;2023-04-24T06:13:37;11.10;99.90
26342;DHT22;14054;50.108;8.640;2023-04-24T06:16:02;11.20;99.90
26342;DHT22;14054;50.108;8.640;2023-04-24T06:18:27;11.10;99.90
26342;DHT22;14054;50.108;8.640;2023-04-24T06:20:53;10.90;99.90
26342;DHT22;14054;50.108;8.640;2023-04-24T06:23:18;10.90;99.90
26342;DHT22;14054;50.108;8.640;2023-04-24T06:25:44;10.80;99.90
26342;DHT22;14054;50.108;8.640;2023-04-24T06:28:09;11.00;99.90
26342;DHT22;14054;50.108;8.640;2023-04-24T06:30:35;10.90;99.90
26342;DHT22;14054;50.108;8.640;2023-04-24T06:33:00;11.00;99.90
26342;DHT22;14054;50.108;8.640;2023-04-24T06:35:25;11.10;99.90
26342;DHT22;14054;50.108;8.640;2023-04-24T06:37:51;11.00;99.90
26342;DHT22;14054;50.108;8.640;2023-04-24T06:40:16;10.90;99.90
26342;DHT22;14054;50.108;8.640;2023-04-24T06:42:43;10.90;99.90
26342;DHT22;14054;50.108;8.640;2023-04-24T06:45:09;11.00;99.90
26342;DHT22;14054;50.108;8.640;2023-04-24T06:47:35;11.00;99.90
26342;DHT22;14054;50.108;8.640;2023-04-24T06:50:00;11.10;99.90
26342;DHT22;14054;50.108;8.640;2023-04-24T06:52:26;10.90;99.90
26342;DHT22;14054;50.108;8.640;2023-04-24T06:54:51;11.00;99.90
26342;DHT22;14054;50.108;8.640;2023-04-24T06:57:17;11.00;99.90
26342;DHT22;14054;50.108;8.640;2023-04-24T06:59:42;11.20;99.90
26342;DHT22;14054;50.108;8.640;2023-04-24T07:02:08;11.30;99.90
26342;DHT22;14054;50.108;8.640;2023-04-24T07:04:33;11.50;99.90
26342;DHT22;14054;50.108;8.640;2023-04-24T07:06:59;12.10;99.90
26342;DHT22;14054;50.108;8.640;2023-04-24T07:09:25;11.60;99.90
26342;DHT22;14054;50.108;8.640;2023-04-24T07:11:53;11.50;99.90
26342;DHT22;14054;50.108;8.640;2023-04-24T07:14:19;11.90;99.90
26342;DHT22;14054;50.108;8.640;2023-04-24T07:16:44;12.50;99.90
26342;DHT22;14054;50.108;8.640;2023-04-24T07:19:10;12.50;99.90
26342;DHT22;14054;50.108;8.640;2023-04-24T07:21:36;12.70;99.90
26342;DHT22;14054;50.108;8.640;2023-04-24T07:24:01;12.30;99.90
26342;DHT22;14054;50.108;8.640;2023-04-24T07:26:27;12.30;99.90
26342;DHT22;14054;50.108;8.640;2023-04-24T07:28:53;12.40;99.90
26342;DHT22;14054;50.108;8.640;2023-04-24T07:31:19;12.30;99.90
26342;DHT22;14054;50.108;8.640;2023-04-24T07:33:44;12.40;99.90
26342;DHT22;14054;50.108;8.640;2023-04-24T07:36:10;12.30;99.90
26342;DHT22;14054;50.108;8.640;2023-04-24T07:38:41;12.30;99.90
26342;DHT22;14054;50.108;8.640;2023-04-24T07:41:06;12.00;99.90
26342;DHT22;14054;50.108;8.640;2023-04-24T07:43:32;12.10;99.90
26342;DHT22;14054;50.108;8.640;2023-04-24T07:45:57;12.40;99.90
26342;DHT22;14054;50.108;8.640;2023-04-24T07:48:23;12.10;99.90
26342;DHT22;14054;50.108;8.640;2023-04-24T07:50:50;12.20;99.90
26342;DHT22;14054;50.108;8.640;2023-04-24T07:53:15;12.50;99.90
26342;DHT22;14054;50.108;8.640;2023-04-24T07:55:41;12.50;99.90
26342;DHT22;14054;50.108;8.640;2023-04-24T07:58:06;12.70;99.90
26342;DHT22;14054;50.108;8.640;2023-04-24T08:00:32;13.00;99.90
26342;DHT22;14054;50.108;8.640;2023-04-24T08:02:58;13.20;99.90
26342;DHT22;14054;50.108;8.640;2023-04-24T08:05:23;12.90;99.90
26342;DHT22;14054;50.108;8.640;2023-04-24T08:07:50;12.90;99.90
26342;DHT22;14054;50.108;8.640;2023-04-24T08:10:16;12.40;99.90
26342;DHT22;14054;50.108;8.640;2023-04-24T08:12:41;12.30;99.90
26342;DHT22;14054;50.108;8.640;2023-04-24T08:15:07;12.20;99.90
26342;DHT22;14054;50.108;8.640;2023-04-24T08:17:33;12.40;99.90
26342;DHT22;14054;50.108;8.640;2023-04-24T08:19:59;12.70;99.90
26342;DHT22;14054;50.108;8.640;2023-04-24T08:22:27;12.70;99.90
26342;DHT22;14054;50.108;8.640;2023-04-24T08:24:52;12.90;99.90
26342;DHT22;14054;50.108;8.640;2023-04-24T08:27:18;13.00;99.90
26342;DHT22;14054;50.108;8.640;2023-04-24T08:29:43;12.90;99.90
26342;DHT22;14054;50.108;8.640;2023-04-24T08:32:09;13.00;99.90
26342;DHT22;14054;50.108;8.640;2023-04-24T08:34:34;13.10;99.90
26342;DHT22;14054;50.108;8.640;2023-04-24T08:37:00;13.40;99.90
26342;DHT22;14054;50.108;8.640;2023-04-24T08:39:25;13.30;99.90
26342;DHT22;14054;50.108;8.640;2023-04-24T08:41:51;13.70;99.90
26342;DHT22;14054;50.108;8.640;2023-04-24T08:44:17;14.00;99.90
26342;DHT22;14054;50.108;8.640;2023-04-24T08:46:44;13.80;99.90
26342;DHT22;14054;50.108;8.640;2023-04-24T08:49:13;13.80;99.90
26342;DHT22;14054;50.108;8.640;2023-04-24T08:51:39;14.00;99.90
26342;DHT22;14054;50.108;8.640;2023-04-24T08:54:04;13.80;99.90
26342;DHT22;14054;50.108;8.640;2023-04-24T08:56:30;13.40;99.90
26342;DHT22;14054;50.108;8.640;2023-04-24T08:58:58;13.00;99.90
26342;DHT22;14054;50.108;8.640;2023-04-24T09:01:24;12.80;99.90
26342;DHT22;14054;50.108;8.640;2023-04-24T09:03:50;12.60;99.90
26342;DHT22;14054;50.108;8.640;2023-04-24T09:06:17;12.40;99.90
26342;DHT22;14054;50.108;8.640;2023-04-24T09:08:43;12.10;99.90
26342;DHT22;14054;50.108;8.640;2023-04-24T09:11:10;12.30;99.90
26342;DHT22;14054;50.108;8.640;2023-04-24T09:13:36;12.60;99.90
26342;DHT22;14054;50.108;8.640;2023-04-24T09:16:02;12.10;99.90
26342;DHT22;14054;50.108;8.640;2023-04-24T09:18:27;12.20;99.90
26342;DHT22;14054;50.108;8.640;2023-04-24T09:21:03;12.10;99.90
26342;DHT22;14054;50.108;8.640;2023-04-24T09:23:30;12.20;99.90
26342;DHT22;14054;50.108;8.640;2023-04-24T09:25:56;12.50;99.90
26342;DHT22;14054;50.108;8.640;2023-04-24T09:28:31;12.20;99.90
26342;DHT22;14054;50.108;8.640;2023-04-24T09:31:07;12.10;99.90
26342;DHT22;14054;50.108;8.640;2023-04-24T09:33:33;12.00;99.90
26342;DHT22;14054;50.108;8.640;2023-04-24T09:35:58;11.90;99.90
26342;DHT22;14054;50.108;8.640;2023-04-24T09:38:35;12.40;99.90
26342;DHT22;14054;50.108;8.640;2023-04-24T09:41:01;11.80;99.90
26342;DHT22;14054;50.108;8.640;2023-04-24T09:43:28;11.70;99.90
26342;DHT22;14054;50.108;8.640;2023-04-24T09:45:57;11.80;99.90
26342;DHT22;14054;50.108;8.640;2023-04-24T09:48:30;11.70;99.90
26342;DHT22;14054;50.108;8.640;2023-04-24T09:50:56;11.80;99.90
26342;DHT22;14054;50.108;8.640;2023-04-24T09:53:24;11.90;99.90
26342;DHT22;14054;50.108;8.640;2023-04-24T09:55:50;12.00;99.90
26342;DHT22;14054;50.108;8.640;2023-04-24T09:58:16;12.10;99.90
26342;DHT22;14054;50.108;8.640;2023-04-24T10:00:41;12.00;99.90
26342;DHT22;14054;50.108;8.640;2023-04-24T10:03:06;12.80;99.90
26342;DHT22;14054;50.108;8.640;2023-04-24T10:05:33;12.60;99.90
26342;DHT22;14054;50.108;8.640;2023-04-24T10:08:03;12.60;99.90
26342;DHT22;14054;50.108;8.640;2023-04-24T10:10:29;12.60;99.90
26342;DHT22;14054;50.108;8.640;2023-04-24T10:12:55;12.80;99.90
26342;DHT22;14054;50.108;8.640;2023-04-24T10:15:21;13.00;99.90
26342;DHT22;14054;50.108;8.640;2023-04-24T10:17:47;13.20;99.90
26342;DHT22;14054;50.108;8.640;2023-04-24T10:20:18;13.00;99.90
26342;DHT22;14054;50.108;8.640;2023-04-24T10:22:44;12.80;99.90
26342;DHT22;14054;50.108;8.640;2023-04-24T10:25:11;12.60;99.90
26342;DHT22;14054;50.108;8.640;2023-04-24T10:27:37;12.40;99.90
26342;DHT22;14054;50.108;8.640;2023-04-24T10:30:03;12.20;99.90
26342;DHT22;14054;50.108;8.640;2023-04-24T10:32:28;12.30;99.90
26342;DHT22;14054;50.108;8.640;2023-04-24T10:34:54;13.10;99.90
26342;DHT22;14054;50.108;8.640;2023-04-24T10:37:21;13.10;99.90
26342;DHT22;14054;50.108;8.640;2023-04-24T10:39:48;12.30;99.90
26342;DHT22;14054;50.108;8.640;2023-04-24T10:42:16;12.20;99.90
26342;DHT22;14054;50.108;8.640;2023-04-24T10:44:42;12.30;99.90
26342;DHT22;14054;50.108;8.640;2023-04-24T10:47:12;12.40;99.90
26342;DHT22;14054;50.108;8.640;2023-04-24T10:49:38;12.70;99.90
26342;DHT22;14054;50.108;8.640;2023-04-24T10:52:03;12.40;99.90
26342;DHT22;14054;50.108;8.640;2023-04-24T10:54:34;12.20;99.90
26342;DHT22;14054;50.108;8.640;2023-04-24T10:59:45;12.10;99.90
26342;DHT22;14054;50.108;8.640;2023-04-24T11:02:10;11.90;99.90
26342;DHT22;14054;50.108;8.640;2023-04-24T11:04:36;12.10;99.90
26342;DHT22;14054;50.108;8.640;2023-04-24T11:07:04;12.50;99.90
26342;DHT22;14054;50.108;8.640;2023-04-24T11:09:31;12.70;99.90
26342;DHT22;14054;50.108;8.640;2023-04-24T11:12:04;13.10;99.90
26342;DHT22;14054;50.108;8.640;2023-04-24T11:14:59;13.30;99.90
26342;DHT22;14054;50.108;8.640;2023-04-24T11:20:16;13.60;99.90
26342;DHT22;14054;50.108;8.640;2023-04-24T11:22:42;13.60;99.90
26342;DHT22;14054;50.108;8.640;2023-04-24T11:25:08;13.50;99.90
26342;DHT22;14054;50.108;8.640;2023-04-24T11:27:43;13.60;99.90
26342;DHT22;14054;50.108;8.640;2023-04-24T11:30:09;13.50;99.90
26342;DHT22;14054;50.108;8.640;2023-04-24T11:32:39;13.70;99.90
26342;DHT22;14054;50.108;8.640;2023-04-24T11:35:06;13.80;99.90
26342;DHT22;14054;50.108;8.640;2023-04-24T11:37:36;14.60;99.90
26342;DHT22;14054;50.108;8.640;2023-04-24T11:40:02;14.70;99.90
26342;DHT22;14054;50.108;8.640;2023-04-24T11:42:33;15.10;99.90
26342;DHT22;14054;50.108;8.640;2023-04-24T11:44:58;16.40;99.90
26342;DHT22;14054;50.108;8.640;2023-04-24T11:47:31;18.20;99.90
26342;DHT22;14054;50.108;8.640;2023-04-24T11:49:59;18.20;99.90
26342;DHT22;14054;50.108;8.640;2023-04-24T11:52:25;19.10;99.90
26342;DHT22;14054;50.108;8.640;2023-04-24T11:54:50;19.40;99.90
26342;DHT22;14054;50.108;8.640;2023-04-24T11:57:18;17.90;99.90
26342;DHT22;14054;50.108;8.640;2023-04-24T11:59:44;16.80;99.90
26342;DHT22;14054;50.108;8.640;2023-04-24T12:02:19;15.80;99.90
26342;DHT22;14054;50.108;8.640;2023-04-24T12:04:44;14.60;99.90
26342;DHT22;14054;50.108;8.640;2023-04-24T12:07:10;14.00;99.90
26342;DHT22;14054;50.108;8.640;2023-04-24T12:09:42;14.00;99.90
26342;DHT22;14054;50.108;8.640;2023-04-24T12:12:08;13.90;99.90
26342;DHT22;14054;50.108;8.640;2023-04-24T12:14:41;13.70;99.90
26342;DHT22;14054;50.108;8.640;2023-04-24T12:17:07;13.60;99.90
26342;DHT22;14054;50.108;8.640;2023-04-24T12:19:32;13.20;99.90
26342;DHT22;14054;50.108;8.640;2023-04-24T12:22:01;12.90;99.90
26342;DHT22;14054;50.108;8.640;2023-04-24T12:24:27;12.40;99.90
26342;DHT22;14054;50.108;8.640;2023-04-24T12:26:52;12.10;99.90
26342;DHT22;14054;50.108;8.640;2023-04-24T12:29:21;12.20;99.90
26342;DHT22;14054;50.108;8.640;2023-04-24T12:31:47;12.60;99.90
26342;DHT22;14054;50.108;8.640;2023-04-24T12:34:22;12.50;99.90
26342;DHT22;14054;50.108;8.640;2023-04-24T12:36:47;12.40;99.90
26342;DHT22;14054;50.108;8.640;2023-04-24T12:39:19;12.40;99.90
26342;DHT22;14054;50.108;8.640;2023-04-24T12:42:03;12.60;99.90
26342;DHT22;14054;50.108;8.640;2023-04-24T12:44:29;13.10;99.90
26342;DHT22;14054;50.108;8.640;2023-04-24T12:46:55;13.20;99.90
26342;DHT22;14054;50.108;8.640;2023-04-24T12:49:21;13.20;99.90
26342;DHT22;14054;50.108;8.640;2023-04-24T12:51:46;14.50;99.90
26342;DHT22;14054;50.108;8.640;2023-04-24T12:54:12;15.80;99.90
26342;DHT22;14054;50.108;8.640;2023-04-24T12:56:37;15.30;99.90
26342;DHT22;14054;50.108;8.640;2023-04-24T12:59:04;14.90;99.90
26342;DHT22;14054;50.108;8.640;2023-04-24T13:01:30;15.10;99.90
26342;DHT22;14054;50.108;8.640;2023-04-24T13:03:55;15.30;99.90
26342;DHT22;14054;50.108;8.640;2023-04-24T13:06:21;15.80;99.90
26342;DHT22;14054;50.108;8.640;2023-04-24T13:08:46;17.20;99.90
26342;DHT22;14054;50.108;8.640;2023-04-24T13:11:13;17.70;99.90
26342;DHT22;14054;50.108;8.640;2023-04-24T13:13:38;19.20;99.90
26342;DHT22;14054;50.108;8.640;2023-04-24T13:16:04;18.60;99.90
26342;DHT22;14054;50.108;8.640;2023-04-24T13:18:29;19.60;99.90
26342;DHT22;14054;50.108;8.640;2023-04-24T13:20:55;18.20;99.90
26342;DHT22;14054;50.108;8.640;2023-04-24T13:23:20;17.50;99.90
26342;DHT22;14054;50.108;8.640;2023-04-24T13:25:46;18.30;99.90
26342;DHT22;14054;50.108;8.640;2023-04-24T13:28:12;18.50;99.90
26342;DHT22;14054;50.108;8.640;2023-04-24T13:30:37;18.40;99.90
26342;DHT22;14054;50.108;8.640;2023-04-24T13:33:03;18.90;99.90
26342;DHT22;14054;50.108;8.640;2023-04-24T13:35:28;17.40;99.90
26342;DHT22;14054;50.108;8.640;2023-04-24T13:37:54;16.50;99.90
26342;DHT22;14054;50.108;8.640;2023-04-24T13:40:19;15.40;99.90
26342;DHT22;14054;50.108;8.640;2023-04-24T13:42:45;14.80;99.90
26342;DHT22;14054;50.108;8.640;2023-04-24T13:45:10;14.60;99.90
26342;DHT22;14054;50.108;8.640;2023-04-24T13:47:36;14.40;99.90
26342;DHT22;14054;50.108;8.640;2023-04-24T13:50:02;14.50;99.90
26342;DHT22;14054;50.108;8.640;2023-04-24T13:52:28;14.80;99.90
26342;DHT22;14054;50.108;8.640;2023-04-24T13:54:53;14.90;99.90
26342;DHT22;14054;50.108;8.640;2023-04-24T13:57:18;15.00;99.90
26342;DHT22;14054;50.108;8.640;2023-04-24T13:59:44;14.70;99.90
26342;DHT22;14054;50.108;8.640;2023-04-24T14:02:10;14.70;99.90
26342;DHT22;14054;50.108;8.640;2023-04-24T14:04:35;14.30;99.90
26342;DHT22;14054;50.108;8.640;2023-04-24T14:07:01;14.10;99.90
26342;DHT22;14054;50.108;8.640;2023-04-24T14:09:26;14.40;99.90
26342;DHT22;14054;50.108;8.640;2023-04-24T14:11:52;17.20;99.90
26342;DHT22;14054;50.108;8.640;2023-04-24T14:14:17;19.20;99.20
26342;DHT22;14054;50.108;8.640;2023-04-24T14:16:43;21.40;94.30
26342;DHT22;14054;50.108;8.640;2023-04-24T14:19:08;20.20;91.90
26342;DHT22;14054;50.108;8.640;2023-04-24T14:21:34;17.90;97.70
26342;DHT22;14054;50.108;8.640;2023-04-24T14:23:59;18.00;99.90
26342;DHT22;14054;50.108;8.640;2023-04-24T14:26:25;18.20;99.00
26342;DHT22;14054;50.108;8.640;2023-04-24T14:28:50;17.50;99.90
26342;DHT22;14054;50.108;8.640;2023-04-24T14:31:16;17.40;99.90
26342;DHT22;14054;50.108;8.640;2023-04-24T14:33:41;17.10;99.90
26342;DHT22;14054;50.108;8.640;2023-04-24T14:36:07;16.70;99.90
26342;DHT22;14054;50.108;8.640;2023-04-24T14:38:32;16.00;99.90
26342;DHT22;14054;50.108;8.640;2023-04-24T14:40:58;15.50;99.90
26342;DHT22;14054;50.108;8.640;2023-04-24T14:43:23;15.00;99.90
26342;DHT22;14054;50.108;8.640;2023-04-24T14:45:49;14.70;99.90
26342;DHT22;14054;50.108;8.640;2023-04-24T14:48:15;14.50;99.90
26342;DHT22;14054;50.108;8.640;2023-04-24T14:50:41;14.30;99.90
26342;DHT22;14054;50.108;8.640;2023-04-24T14:53:07;14.10;99.90
26342;DHT22;14054;50.108;8.640;2023-04-24T14:55:32;13.90;99.90
26342;DHT22;14054;50.108;8.640;2023-04-24T14:57:59;13.70;99.90
26342;DHT22;14054;50.108;8.640;2023-04-24T15:00:25;13.90;99.90
26342;DHT22;14054;50.108;8.640;2023-04-24T15:02:50;14.00;99.90
26342;DHT22;14054;50.108;8.640;2023-04-24T15:05:16;14.10;99.90
26342;DHT22;14054;50.108;8.640;2023-04-24T15:07:41;14.10;99.90
26342;DHT22;14054;50.108;8.640;2023-04-24T15:10:07;14.10;99.90
26342;DHT22;14054;50.108;8.640;2023-04-24T15:12:33;14.00;99.90
26342;DHT22;14054;50.108;8.640;2023-04-24T15:14:58;13.90;99.90
26342;DHT22;14054;50.108;8.640;2023-04-24T15:17:24;13.70;99.90
26342;DHT22;14054;50.108;8.640;2023-04-24T15:19:50;13.70;99.90
26342;DHT22;14054;50.108;8.640;2023-04-24T15:22:15;13.80;99.90
26342;DHT22;14054;50.108;8.640;2023-04-24T15:24:41;13.80;99.90
26342;DHT22;14054;50.108;8.640;2023-04-24T15:27:08;13.90;99.90
26342;DHT22;14054;50.108;8.640;2023-04-24T15:29:34;13.80;99.90